createdAt,value
2022-11-14T00:11:27.847Z,4.67
2022-11-14T00:14:18.846Z,4.70
2022-11-14T00:17:08.471Z,4.73
2022-11-14T00:19:58.848Z,4.74
2022-11-14T00:22:48.419Z,4.77
2022-11-14T00:25:37.816Z,4.84
2022-11-14T00:28:27.629Z,4.89
2022-11-14T00:31:17.100Z,4.89
2022-11-14T00:34:09.902Z,4.89
2022-11-14T00:36:59.076Z,4.90
2022-11-14T00:39:48.763Z,4.91
2022-11-14T00:42:38.724Z,4.90
2022-11-14T00:45:27.808Z,4.90
2022-11-14T00:48:17.251Z,4.93
2022-11-14T00:51:06.399Z,4.91
2022-11-14T00:53:55.814Z,4.85
2022-11-14T00:56:47.757Z,4.81
2022-11-14T00:59:37.146Z,4.74
2022-11-14T01:02:26.585Z,4.71
2022-11-14T01:05:15.986Z,4.70
2022-11-14T01:08:05.253Z,4.70
2022-11-14T01:10:54.350Z,4.64
2022-11-14T01:13:44.019Z,4.61
2022-11-14T01:16:33.433Z,4.60
2022-11-14T01:19:22.800Z,4.61
2022-11-14T01:22:12.144Z,4.59
2022-11-14T01:25:01.851Z,4.58
2022-11-14T01:27:51.506Z,4.63
2022-11-14T01:30:41.272Z,4.67
2022-11-14T01:33:30.783Z,4.70
2022-11-14T01:36:20.337Z,4.70
2022-11-14T01:39:09.389Z,4.72
2022-11-14T01:41:58.616Z,4.73
2022-11-14T01:44:48.867Z,4.74
2022-11-14T01:47:37.873Z,4.76
2022-11-14T01:50:28.937Z,4.80
2022-11-14T01:53:18.182Z,4.84
2022-11-14T01:56:10.242Z,4.89
2022-11-14T01:59:03.873Z,4.91
2022-11-14T02:01:54.313Z,4.93
2022-11-14T02:04:45.322Z,4.90
2022-11-14T02:07:38.115Z,4.85
2022-11-14T02:10:27.900Z,4.86
2022-11-14T02:13:20.433Z,4.87
2022-11-14T02:16:09.704Z,4.88
2022-11-14T02:18:59.823Z,4.88
2022-11-14T02:21:48.923Z,4.91
2022-11-14T02:24:38.345Z,4.91
2022-11-14T02:27:27.999Z,4.91
2022-11-14T02:30:20.101Z,4.92
2022-11-14T02:33:11.582Z,4.90
2022-11-14T02:36:01.348Z,4.85
2022-11-14T02:38:53.695Z,4.83
2022-11-14T02:41:43.011Z,4.80
2022-11-14T02:44:32.643Z,4.80
2022-11-14T02:47:21.947Z,4.77
2022-11-14T02:50:11.793Z,4.75
2022-11-14T02:53:01.139Z,4.74
2022-11-14T02:55:50.676Z,4.70
2022-11-14T02:58:40.344Z,4.69
2022-11-14T03:01:29.487Z,4.68
2022-11-14T03:04:19.072Z,4.67
2022-11-14T03:07:08.273Z,4.63
2022-11-14T03:09:57.688Z,4.62
2022-11-14T03:12:47.106Z,4.60
2022-11-14T03:15:39.205Z,4.60
2022-11-14T03:18:29.527Z,4.61
2022-11-14T03:21:20.581Z,4.57
2022-11-14T03:24:09.932Z,4.56
2022-11-14T03:26:59.129Z,4.54
2022-11-14T03:29:48.242Z,4.53
2022-11-14T03:32:37.437Z,4.51
2022-11-14T03:35:26.857Z,4.49
2022-11-14T03:38:16.063Z,4.47
2022-11-14T03:41:05.530Z,4.47
2022-11-14T03:43:55.398Z,4.45
2022-11-14T03:46:44.628Z,4.44
2022-11-14T03:49:34.714Z,4.42
2022-11-14T03:52:26.142Z,4.42
2022-11-14T03:55:15.731Z,4.44
2022-11-14T03:58:08.347Z,4.44
2022-11-14T04:00:57.847Z,4.43
2022-11-14T04:03:47.280Z,4.44
2022-11-14T04:06:36.708Z,4.42
2022-11-14T04:09:25.859Z,4.39
2022-11-14T04:12:15.995Z,4.39
2022-11-14T04:15:08.923Z,4.38
2022-11-14T04:17:58.157Z,4.39
2022-11-14T04:20:48.041Z,4.41
2022-11-14T04:23:37.196Z,4.42
2022-11-14T04:26:26.517Z,4.44
2022-11-14T04:29:15.857Z,4.48
2022-11-14T04:32:05.498Z,4.50
2022-11-14T04:34:57.959Z,4.50
2022-11-14T04:37:47.628Z,4.54
2022-11-14T04:40:36.875Z,4.59
2022-11-14T04:43:25.818Z,4.62
2022-11-14T04:46:14.914Z,4.66
2022-11-14T04:49:04.117Z,4.68
2022-11-14T04:51:53.306Z,4.69
2022-11-14T04:54:42.630Z,4.70
2022-11-14T04:57:31.849Z,4.71
2022-11-14T05:00:21.115Z,4.72
2022-11-14T05:03:10.782Z,4.71
2022-11-14T05:06:02.971Z,4.74
2022-11-14T05:08:52.376Z,4.77
2022-11-14T05:11:41.405Z,4.79
2022-11-14T05:14:31.818Z,4.79
2022-11-14T05:17:21.146Z,4.79
2022-11-14T05:20:11.366Z,4.77
2022-11-14T05:23:00.779Z,4.75
2022-11-14T05:25:59.366Z,4.71
2022-11-14T05:28:48.323Z,4.69
2022-11-14T05:31:37.429Z,4.68
2022-11-14T05:34:26.584Z,4.66
2022-11-14T05:37:16.044Z,4.61
2022-11-14T05:40:05.862Z,4.58
2022-11-14T05:42:59.214Z,4.55
2022-11-14T05:45:48.275Z,4.54
2022-11-14T05:48:37.730Z,4.50
2022-11-14T05:51:29.042Z,4.48
2022-11-14T05:54:18.804Z,4.46
2022-11-14T05:57:08.666Z,4.48
2022-11-14T06:00:00.193Z,4.52
2022-11-14T06:02:49.313Z,4.52
2022-11-14T06:05:38.798Z,4.55
2022-11-14T06:08:28.642Z,4.57
2022-11-14T06:11:20.037Z,4.60
2022-11-14T06:14:11.248Z,4.63
2022-11-14T06:17:00.944Z,4.63
2022-11-14T06:19:49.927Z,4.63
2022-11-14T06:22:39.166Z,4.66
2022-11-14T06:25:29.620Z,4.66
2022-11-14T06:28:18.636Z,4.64
2022-11-14T06:31:10.058Z,4.61
2022-11-14T06:33:59.609Z,4.58
2022-11-14T06:36:48.509Z,4.57
2022-11-14T06:39:41.126Z,4.58
2022-11-14T06:42:30.041Z,4.56
2022-11-14T06:45:19.004Z,4.57
2022-11-14T06:48:08.195Z,4.60
2022-11-14T06:50:58.984Z,4.58
2022-11-14T06:53:48.097Z,4.58
2022-11-14T06:56:37.674Z,4.55
2022-11-14T06:59:26.591Z,4.55
2022-11-14T07:02:21.530Z,4.52
2022-11-14T07:05:11.338Z,4.51
2022-11-14T07:08:00.622Z,4.52
2022-11-14T07:10:49.967Z,4.54
2022-11-14T07:13:39.575Z,4.60
2022-11-14T07:16:30.637Z,4.59
2022-11-14T07:19:20.170Z,4.57
2022-11-14T07:22:09.313Z,4.56
2022-11-14T07:24:58.586Z,4.54
2022-11-14T07:27:48.183Z,4.54
2022-11-14T07:30:37.358Z,4.53
2022-11-14T07:33:26.680Z,4.55
2022-11-14T07:36:16.703Z,4.57
2022-11-14T07:39:05.885Z,4.62
2022-11-14T07:41:55.079Z,4.66
2022-11-14T07:44:44.006Z,4.69
2022-11-14T07:47:58.416Z,4.67
2022-11-14T07:51:19.346Z,4.73
2022-11-14T07:54:32.672Z,4.76
2022-11-14T08:01:37.660Z,4.83
2022-11-14T08:04:51.759Z,4.89
2022-11-14T08:08:12.609Z,4.98
2022-11-14T08:20:36.889Z,5.20
2022-11-14T08:27:48.713Z,5.29
2022-11-14T08:31:03.238Z,5.39
2022-11-14T08:34:23.785Z,5.45
2022-11-14T08:37:36.952Z,5.48
2022-11-14T08:41:00.407Z,5.52
2022-11-14T08:44:13.878Z,5.53
2022-11-14T08:47:33.679Z,5.54
2022-11-14T08:50:47.822Z,5.59
2022-11-14T08:54:08.625Z,5.64
2022-11-14T08:57:22.755Z,5.65
2022-11-14T09:00:42.986Z,5.61
2022-11-14T09:03:59.768Z,5.60
2022-11-14T09:12:35.844Z,5.79
2022-11-14T09:45:52.887Z,6.20
2022-11-14T09:49:10.368Z,6.24
2022-11-14T09:52:38.069Z,6.34
2022-11-14T09:55:52.277Z,6.39
2022-11-14T09:59:05.016Z,6.49
2022-11-14T10:06:48.458Z,6.60
2022-11-14T10:49:33.771Z,7.08
2022-11-14T10:56:52.141Z,7.07
2022-11-14T11:03:58.226Z,7.26
2022-11-14T11:15:25.461Z,9.52
2022-11-14T11:22:45.129Z,9.55
2022-11-14T11:30:27.482Z,10.14
2022-11-14T11:42:15.979Z,13.19
2022-11-14T11:45:13.021Z,13.68
2022-11-14T11:48:02.944Z,13.74
2022-11-14T11:50:51.814Z,13.59
2022-11-14T11:53:42.423Z,13.90
2022-11-14T11:56:33.072Z,14.37
2022-11-14T11:59:28.087Z,14.42
2022-11-14T12:02:22.731Z,14.87
2022-11-14T12:05:15.483Z,15.49
2022-11-14T12:08:07.589Z,16.05
2022-11-14T12:10:58.141Z,16.52
2022-11-14T12:14:00.636Z,17.08
2022-11-14T12:17:02.673Z,17.58
2022-11-14T12:20:01.671Z,17.50
2022-11-14T12:23:04.265Z,17.81
2022-11-14T12:26:14.796Z,18.21
2022-11-14T12:29:12.465Z,18.07
2022-11-14T12:32:06.893Z,17.97
2022-11-14T12:34:55.959Z,18.09
2022-11-14T12:37:52.698Z,18.35
2022-11-14T12:40:50.660Z,18.03
2022-11-14T12:43:40.450Z,18.08
2022-11-14T12:46:49.847Z,18.67
2022-11-14T12:49:40.529Z,19.15
2022-11-14T12:52:51.963Z,19.26
2022-11-14T12:56:03.753Z,19.29
2022-11-14T12:59:11.838Z,19.17
2022-11-14T13:02:14.924Z,18.74
2022-11-14T13:05:17.288Z,18.07
2022-11-14T13:08:16.813Z,17.21
2022-11-14T13:11:39.390Z,16.50
2022-11-14T13:14:49.540Z,15.73
2022-11-14T13:17:57.804Z,15.12
2022-11-14T13:21:05.286Z,14.71
2022-11-14T13:23:57.906Z,14.41
2022-11-14T13:26:48.164Z,14.15
2022-11-14T13:29:57.904Z,13.92
2022-11-14T13:33:04.606Z,13.79
2022-11-14T13:36:02.130Z,13.75
2022-11-14T13:39:10.913Z,13.85
2022-11-14T13:42:17.174Z,14.00
2022-11-14T13:45:28.838Z,14.21
2022-11-14T13:48:25.136Z,14.32
2022-11-14T13:51:41.861Z,14.47
2022-11-14T13:54:29.351Z,14.53
2022-11-14T13:57:27.854Z,14.55
2022-11-14T14:00:20.804Z,14.51
2022-11-14T14:03:16.907Z,14.42
2022-11-14T14:06:14.180Z,14.27
2022-11-14T14:09:10.917Z,14.13
2022-11-14T14:12:11.879Z,13.87
2022-11-14T14:15:05.743Z,13.53
2022-11-14T14:18:00.987Z,13.21
2022-11-14T14:20:54.844Z,12.88
2022-11-14T14:23:47.298Z,12.59
2022-11-14T14:26:42.533Z,12.30
2022-11-14T14:29:39.769Z,11.98
2022-11-14T14:32:29.531Z,11.67
2022-11-14T14:35:26.165Z,11.37
2022-11-14T14:38:23.273Z,11.08
2022-11-14T14:41:14.340Z,10.81
2022-11-14T14:44:27.901Z,10.54
2022-11-14T14:51:36.435Z,10.07
2022-11-14T14:59:18.433Z,9.63
2022-11-14T15:07:25.941Z,9.18
2022-11-14T15:10:40.167Z,8.95
2022-11-14T15:13:56.577Z,8.77
2022-11-14T15:21:30.950Z,8.42
2022-11-14T15:33:46.721Z,8.00
2022-11-14T15:37:44.360Z,7.87
2022-11-14T15:44:05.357Z,7.61
2022-11-14T15:47:26.286Z,7.45
2022-11-14T15:50:45.409Z,7.30
2022-11-14T15:53:34.822Z,7.18
2022-11-14T15:56:55.306Z,7.08
2022-11-14T16:00:12.925Z,7.00
2022-11-14T16:03:32.569Z,6.93
2022-11-14T16:10:43.481Z,6.76
2022-11-14T16:13:57.306Z,6.72
2022-11-14T16:17:17.595Z,6.68
2022-11-14T16:38:21.045Z,6.51
2022-11-14T16:45:56.956Z,6.41
2022-11-14T16:53:07.433Z,6.36
2022-11-14T16:56:20.373Z,6.28
2022-11-14T16:59:40.471Z,6.25
2022-11-14T17:07:03.962Z,6.24
2022-11-14T17:09:53.332Z,6.19
2022-11-14T17:12:42.361Z,6.15
2022-11-14T17:15:33.096Z,6.14
2022-11-14T17:18:22.680Z,6.11
2022-11-14T17:21:12.821Z,6.10
2022-11-14T17:24:02.838Z,6.09
2022-11-14T17:26:52.203Z,6.09
2022-11-14T17:29:41.514Z,6.08
2022-11-14T17:32:32.133Z,6.08
2022-11-14T17:35:21.485Z,6.12
2022-11-14T17:38:11.800Z,6.17
2022-11-14T17:41:01.447Z,6.19
2022-11-14T17:47:46.811Z,6.15
2022-11-14T17:51:05.273Z,6.15
2022-11-14T17:54:31.625Z,6.13
2022-11-14T17:57:45.481Z,6.11
2022-11-14T18:01:09.830Z,6.07
2022-11-14T18:04:31.619Z,6.02
2022-11-14T18:07:45.426Z,6.00
2022-11-14T18:14:55.595Z,5.97
2022-11-14T18:18:09.101Z,5.95
2022-11-14T18:21:28.584Z,5.93
2022-11-14T18:33:46.810Z,5.77
2022-11-14T18:37:32.740Z,5.73
2022-11-14T18:49:23.359Z,5.64
2022-11-14T18:52:37.373Z,5.66
2022-11-14T18:55:58.347Z,5.66
2022-11-14T18:59:11.796Z,5.64
2022-11-14T19:02:32.691Z,5.68
2022-11-14T19:05:46.805Z,5.69
2022-11-14T19:09:02.774Z,5.68
2022-11-14T19:16:01.426Z,5.64
2022-11-14T19:32:07.312Z,5.51
2022-11-14T19:35:21.207Z,5.50
2022-11-14T19:47:42.750Z,5.40
2022-11-14T19:54:54.928Z,5.29
2022-11-14T19:58:08.757Z,5.24
2022-11-14T20:01:30.065Z,5.22
2022-11-14T20:04:44.105Z,5.18
2022-11-14T20:08:04.868Z,5.14
2022-11-14T20:11:19.315Z,5.13
2022-11-14T20:14:38.980Z,5.09
2022-11-14T20:17:52.881Z,5.04
2022-11-14T20:21:07.976Z,5.01
2022-11-14T20:24:50.575Z,5.01
2022-11-14T20:28:12.287Z,5.02
2022-11-14T20:31:25.392Z,5.01
2022-11-14T20:34:38.975Z,5.02
2022-11-14T20:41:46.479Z,5.05
2022-11-14T20:45:00.325Z,5.06
2022-11-14T20:48:17.693Z,5.05
2022-11-14T20:55:38.986Z,4.96
2022-11-14T20:58:28.554Z,4.92
2022-11-14T21:01:17.764Z,4.90
2022-11-14T21:04:07.706Z,4.89
2022-11-14T21:06:57.023Z,4.89
2022-11-14T21:09:46.130Z,4.93
2022-11-14T21:12:35.436Z,4.93
2022-11-14T21:15:24.775Z,4.91
2022-11-14T21:18:14.159Z,4.92
2022-11-14T21:21:04.685Z,4.93
2022-11-14T21:23:53.623Z,4.92
2022-11-14T21:26:43.143Z,4.91
2022-11-14T21:29:32.837Z,4.92
2022-11-14T21:32:22.233Z,4.91
2022-11-14T21:35:11.429Z,4.91
2022-11-14T21:38:00.603Z,4.92
2022-11-14T21:40:54.381Z,4.94
2022-11-14T21:43:43.717Z,4.96
2022-11-14T21:46:32.635Z,4.96
2022-11-14T21:49:21.932Z,4.97
2022-11-14T21:52:11.007Z,4.95
2022-11-14T21:55:00.332Z,4.92
2022-11-14T21:57:49.567Z,4.89
2022-11-14T22:00:38.562Z,4.84
2022-11-14T22:03:45.618Z,4.84
2022-11-14T22:06:34.725Z,4.83
2022-11-14T22:09:24.505Z,4.82
2022-11-14T22:12:13.752Z,4.80
2022-11-14T22:15:02.859Z,4.80
2022-11-14T22:17:52.634Z,4.81
2022-11-14T22:20:42.175Z,4.81
2022-11-14T22:23:34.107Z,4.79
2022-11-14T22:26:24.121Z,4.77
2022-11-14T22:29:13.871Z,4.76
2022-11-14T22:32:03.072Z,4.75
2022-11-14T22:34:52.241Z,4.74
2022-11-14T22:37:41.402Z,4.73
2022-11-14T22:40:30.858Z,4.72
2022-11-14T22:43:22.442Z,4.72
2022-11-14T22:46:12.528Z,4.73
2022-11-14T22:49:03.888Z,4.74
2022-11-14T22:51:53.191Z,4.71
2022-11-14T22:54:42.331Z,4.70
2022-11-14T22:57:31.702Z,4.68
2022-11-14T23:00:23.675Z,4.67
2022-11-14T23:03:17.599Z,4.69
2022-11-14T23:06:11.086Z,4.72
2022-11-14T23:09:00.537Z,4.71
2022-11-14T23:11:50.267Z,4.71
2022-11-14T23:14:39.590Z,4.70
2022-11-14T23:17:28.510Z,4.68
2022-11-14T23:20:17.510Z,4.68
2022-11-14T23:23:07.362Z,4.63
2022-11-14T23:25:56.889Z,4.65
2022-11-14T23:28:46.494Z,4.63
2022-11-14T23:31:35.890Z,4.56
2022-11-14T23:34:25.101Z,4.55
2022-11-14T23:37:17.646Z,4.56
2022-11-14T23:40:07.964Z,4.54
2022-11-14T23:42:57.331Z,4.52
2022-11-14T23:45:46.990Z,4.51
2022-11-14T23:48:35.949Z,4.51
2022-11-14T23:51:25.642Z,4.51
2022-11-14T23:54:17.372Z,4.50
2022-11-14T23:57:08.761Z,4.51
